LEAM/LEI METAR and TAF weather

Enter ICAO airport designator
Station Type Date Time Source
LEAM METAR 2020/09/21 09:30 UTC NOAA

LEAM 210930Z VRB02KT CAVOK 23/20 Q1017


Station Type Date Time Source
LEAM Decoded METAR 2020/09/21 09:30 UTC NOAA

Almeria / Aeropuerto, Spain (LEAM) 36-51N 002-23W 21M
Sep 21, 2020 - 05:30 AM EDT / 2020.09.21 0930 UTC
Wind: Variable at 2 MPH (2 KT):0
Visibility: greater than 7 mile(s):0
Temperature: 73 F (23 C)
Dew Point: 68 F (20 C)
Relative Humidity: 83%
Pressure (altimeter): 30.03 in. Hg (1017 hPa)
ob: LEAM 210930Z VRB02KT CAVOK 23/20 Q1017
cycle: 9

Station Type Date Time Source
LEAM TAF 2020/09/21 09:29 UTC NOAA

TAF LEAM 210800Z 2109/2209 VRB03KT CAVOK TX26/2113Z TN20/2206Z PROB40
TEMPO 2112/2117 21010KT PROB30
TEMPO 2123/2207 3000 BR

Example: see airport list